sensor_id;sensor_type;location;lat;lon;timestamp;pressure;altitude;pressure_sealevel;temperature;humidity
10176;BME280;18221;38.704;0.152;2023-02-15T00:04:33;100185.16;;;15.27;53.09
10176;BME280;18221;38.704;0.152;2023-02-15T00:07:19;100180.22;;;15.22;52.92
10176;BME280;18221;38.704;0.152;2023-02-15T00:09:48;100168.38;;;15.06;53.33
10176;BME280;18221;38.704;0.152;2023-02-15T00:12:17;100166.97;;;15.02;53.54
10176;BME280;18221;38.704;0.152;2023-02-15T00:14:45;100161.34;;;15.05;53.65
10176;BME280;18221;38.704;0.152;2023-02-15T00:17:14;100165.16;;;15.12;53.26
10176;BME280;18221;38.704;0.152;2023-02-15T00:19:44;100156.41;;;15.00;53.23
10176;BME280;18221;38.704;0.152;2023-02-15T00:22:13;100152.91;;;15.09;53.30
10176;BME280;18221;38.704;0.152;2023-02-15T00:24:42;100153.03;;;15.08;53.39
10176;BME280;18221;38.704;0.152;2023-02-15T00:27:10;100155.13;;;14.95;53.43
10176;BME280;18221;38.704;0.152;2023-02-15T00:29:39;100153.03;;;14.98;53.53
10176;BME280;18221;38.704;0.152;2023-02-15T00:32:08;100146.00;;;14.78;53.89
10176;BME280;18221;38.704;0.152;2023-02-15T00:34:36;100138.94;;;14.67;54.23
10176;BME280;18221;38.704;0.152;2023-02-15T00:37:06;100144.13;;;14.78;54.20
10176;BME280;18221;38.704;0.152;2023-02-15T00:39:35;100132.31;;;14.81;53.61
10176;BME280;18221;38.704;0.152;2023-02-15T00:42:03;100129.53;;;14.82;53.61
10176;BME280;18221;38.704;0.152;2023-02-15T00:44:32;100115.16;;;14.74;53.58
10176;BME280;18221;38.704;0.152;2023-02-15T00:47:00;100121.50;;;14.73;53.59
10176;BME280;18221;38.704;0.152;2023-02-15T00:49:29;100122.06;;;14.67;53.89
10176;BME280;18221;38.704;0.152;2023-02-15T00:51:57;100119.31;;;14.38;54.55
10176;BME280;18221;38.704;0.152;2023-02-15T00:54:27;100120.66;;;14.23;54.99
10176;BME280;18221;38.704;0.152;2023-02-15T00:56:56;100120.06;;;14.19;55.33
10176;BME280;18221;38.704;0.152;2023-02-15T00:59:24;100107.69;;;14.18;55.18
10176;BME280;18221;38.704;0.152;2023-02-15T01:01:53;100117.56;;;14.28;54.75
10176;BME280;18221;38.704;0.152;2023-02-15T01:04:21;100124.03;;;14.25;54.71
10176;BME280;18221;38.704;0.152;2023-02-15T01:06:50;100112.72;;;14.42;54.70
10176;BME280;18221;38.704;0.152;2023-02-15T01:09:18;100111.75;;;14.43;54.14
10176;BME280;18221;38.704;0.152;2023-02-15T01:11:48;100115.78;;;14.38;54.56
10176;BME280;18221;38.704;0.152;2023-02-15T01:14:17;100113.03;;;14.49;54.30
10176;BME280;18221;38.704;0.152;2023-02-15T01:16:46;100107.41;;;14.52;54.05
10176;BME280;18221;38.704;0.152;2023-02-15T01:19:14;100112.59;;;14.44;53.86
10176;BME280;18221;38.704;0.152;2023-02-15T01:21:43;100101.91;;;14.44;54.29
10176;BME280;18221;38.704;0.152;2023-02-15T01:24:13;100097.31;;;14.15;54.55
10176;BME280;18221;38.704;0.152;2023-02-15T01:26:41;100101.66;;;14.16;54.75
10176;BME280;18221;38.704;0.152;2023-02-15T01:29:11;100103.47;;;14.16;54.94
10176;BME280;18221;38.704;0.152;2023-02-15T01:31:40;100104.91;;;14.30;54.73
10176;BME280;18221;38.704;0.152;2023-02-15T01:34:08;100095.88;;;14.21;54.81
10176;BME280;18221;38.704;0.152;2023-02-15T01:36:37;100092.94;;;14.14;55.04
10176;BME280;18221;38.704;0.152;2023-02-15T01:39:05;100098.63;;;14.00;55.49
10176;BME280;18221;38.704;0.152;2023-02-15T01:41:34;100092.25;;;14.22;54.84
10176;BME280;18221;38.704;0.152;2023-02-15T01:47:10;100091.50;;;14.10;54.98
10176;BME280;18221;38.704;0.152;2023-02-15T01:49:44;100083.19;;;14.04;55.29
10176;BME280;18221;38.704;0.152;2023-02-15T01:52:17;100091.38;;;14.21;55.13
10176;BME280;18221;38.704;0.152;2023-02-15T01:54:48;100080.00;;;14.10;55.44
10176;BME280;18221;38.704;0.152;2023-02-15T01:57:22;100066.09;;;14.26;55.03
10176;BME280;18221;38.704;0.152;2023-02-15T01:59:57;100070.59;;;14.15;55.47
10176;BME280;18221;38.704;0.152;2023-02-15T02:02:29;100062.25;;;14.09;55.75
10176;BME280;18221;38.704;0.152;2023-02-15T02:05:00;100061.47;;;14.18;55.78
10176;BME280;18221;38.704;0.152;2023-02-15T02:07:39;100052.00;;;14.14;55.62
10176;BME280;18221;38.704;0.152;2023-02-15T02:10:13;100060.19;;;14.22;55.62
10176;BME280;18221;38.704;0.152;2023-02-15T02:12:45;100060.75;;;14.26;55.70
10176;BME280;18221;38.704;0.152;2023-02-15T02:15:14;100057.09;;;14.17;55.72
10176;BME280;18221;38.704;0.152;2023-02-15T02:17:59;100059.00;;;14.05;55.67
10176;BME280;18221;38.704;0.152;2023-02-15T02:21:02;100052.72;;;14.16;55.47
10176;BME280;18221;38.704;0.152;2023-02-15T02:23:56;100045.53;;;14.07;55.75
10176;BME280;18221;38.704;0.152;2023-02-15T02:33:49;100043.28;;;14.12;55.40
10176;BME280;18221;38.704;0.152;2023-02-15T02:36:31;100040.81;;;13.90;56.02
10176;BME280;18221;38.704;0.152;2023-02-15T02:39:15;100042.38;;;13.92;56.06
10176;BME280;18221;38.704;0.152;2023-02-15T02:42:00;100050.94;;;13.86;55.91
10176;BME280;18221;38.704;0.152;2023-02-15T02:44:37;100045.19;;;13.81;55.61
10176;BME280;18221;38.704;0.152;2023-02-15T02:47:16;100037.88;;;13.93;55.39
10176;BME280;18221;38.704;0.152;2023-02-15T02:49:59;100031.19;;;14.08;54.80
10176;BME280;18221;38.704;0.152;2023-02-15T02:52:40;100030.03;;;13.91;55.04
10176;BME280;18221;38.704;0.152;2023-02-15T02:55:16;100035.53;;;13.99;54.71
10176;BME280;18221;38.704;0.152;2023-02-15T02:57:55;100035.53;;;13.99;54.90
10176;BME280;18221;38.704;0.152;2023-02-15T03:00:28;100038.75;;;13.93;54.70
10176;BME280;18221;38.704;0.152;2023-02-15T03:03:03;100029.50;;;14.07;54.53
10176;BME280;18221;38.704;0.152;2023-02-15T03:05:41;100043.34;;;13.82;55.10
10176;BME280;18221;38.704;0.152;2023-02-15T03:08:16;100039.06;;;14.09;54.75
10176;BME280;18221;38.704;0.152;2023-02-15T03:10:54;100037.09;;;14.02;54.93
10176;BME280;18221;38.704;0.152;2023-02-15T03:13:24;100032.34;;;14.24;54.66
10176;BME280;18221;38.704;0.152;2023-02-15T03:15:54;100041.75;;;14.19;54.88
10176;BME280;18221;38.704;0.152;2023-02-15T03:18:47;100034.31;;;14.22;54.82
10176;BME280;18221;38.704;0.152;2023-02-15T03:21:27;100043.84;;;14.06;55.00
10176;BME280;18221;38.704;0.152;2023-02-15T03:24:04;100040.47;;;14.04;55.18
10176;BME280;18221;38.704;0.152;2023-02-15T03:26:36;100036.25;;;14.11;55.17
10176;BME280;18221;38.704;0.152;2023-02-15T03:29:08;100036.38;;;14.00;54.87
10176;BME280;18221;38.704;0.152;2023-02-15T03:31:46;100041.00;;;13.98;54.82
10176;BME280;18221;38.704;0.152;2023-02-15T03:34:17;100036.44;;;13.79;55.73
10176;BME280;18221;38.704;0.152;2023-02-15T03:36:54;100032.97;;;13.98;55.44
10176;BME280;18221;38.704;0.152;2023-02-15T03:39:33;100023.41;;;13.95;55.47
10176;BME280;18221;38.704;0.152;2023-02-15T03:42:13;100016.25;;;13.96;55.10
10176;BME280;18221;38.704;0.152;2023-02-15T03:44:53;100018.81;;;14.07;54.90
10176;BME280;18221;38.704;0.152;2023-02-15T03:47:28;100020.19;;;13.92;54.89
10176;BME280;18221;38.704;0.152;2023-02-15T03:50:04;100015.72;;;14.02;55.32
10176;BME280;18221;38.704;0.152;2023-02-15T03:52:58;100014.72;;;13.93;55.20
10176;BME280;18221;38.704;0.152;2023-02-15T03:55:26;100009.00;;;14.07;54.65
10176;BME280;18221;38.704;0.152;2023-02-15T03:57:56;100004.44;;;13.89;55.30
10176;BME280;18221;38.704;0.152;2023-02-15T04:00:49;100008.75;;;13.71;55.44
10176;BME280;18221;38.704;0.152;2023-02-15T04:03:42;100004.69;;;13.76;55.40
10176;BME280;18221;38.704;0.152;2023-02-15T04:06:12;100007.72;;;13.62;55.54
10176;BME280;18221;38.704;0.152;2023-02-15T04:08:42;100010.56;;;13.70;55.72
10176;BME280;18221;38.704;0.152;2023-02-15T04:11:42;100014.59;;;13.55;55.60
10176;BME280;18221;38.704;0.152;2023-02-15T04:14:11;100012.56;;;13.87;55.02
10176;BME280;18221;38.704;0.152;2023-02-15T04:16:53;100008.13;;;13.97;54.71
10176;BME280;18221;38.704;0.152;2023-02-15T04:19:21;100006.84;;;13.92;54.42
10176;BME280;18221;38.704;0.152;2023-02-15T04:22:07;100013.53;;;13.77;54.76
10176;BME280;18221;38.704;0.152;2023-02-15T04:24:54;100009.44;;;13.63;55.21
10176;BME280;18221;38.704;0.152;2023-02-15T04:27:39;100015.63;;;13.73;54.91
10176;BME280;18221;38.704;0.152;2023-02-15T04:30:10;100017.47;;;13.82;54.80
10176;BME280;18221;38.704;0.152;2023-02-15T04:32:38;100024.09;;;13.78;54.68
10176;BME280;18221;38.704;0.152;2023-02-15T04:35:08;100013.31;;;13.89;54.43
10176;BME280;18221;38.704;0.152;2023-02-15T04:37:38;100028.75;;;13.86;54.61
10176;BME280;18221;38.704;0.152;2023-02-15T04:40:12;100020.19;;;13.92;54.32
10176;BME280;18221;38.704;0.152;2023-02-15T04:42:41;100018.53;;;13.60;55.04
10176;BME280;18221;38.704;0.152;2023-02-15T04:45:10;100023.41;;;13.86;54.72
10176;BME280;18221;38.704;0.152;2023-02-15T04:47:38;100022.88;;;13.92;54.36
10176;BME280;18221;38.704;0.152;2023-02-15T04:50:08;100034.78;;;13.88;54.10
10176;BME280;18221;38.704;0.152;2023-02-15T04:52:36;100020.38;;;14.00;53.88
10176;BME280;18221;38.704;0.152;2023-02-15T04:55:07;100025.84;;;14.08;53.51
10176;BME280;18221;38.704;0.152;2023-02-15T04:57:36;100021.75;;;14.04;53.70
10176;BME280;18221;38.704;0.152;2023-02-15T05:00:06;100021.50;;;14.07;53.58
10176;BME280;18221;38.704;0.152;2023-02-15T05:02:35;100030.44;;;13.87;54.27
10176;BME280;18221;38.704;0.152;2023-02-15T05:05:05;100022.97;;;13.81;54.44
10176;BME280;18221;38.704;0.152;2023-02-15T05:07:34;100023.06;;;13.70;54.84
10176;BME280;18221;38.704;0.152;2023-02-15T05:10:02;100029.66;;;13.66;54.98
10176;BME280;18221;38.704;0.152;2023-02-15T05:12:32;100028.22;;;13.92;54.34
10176;BME280;18221;38.704;0.152;2023-02-15T05:15:01;100023.03;;;14.00;54.23
10176;BME280;18221;38.704;0.152;2023-02-15T05:17:29;100016.56;;;14.02;54.17
10176;BME280;18221;38.704;0.152;2023-02-15T05:19:58;100015.84;;;14.00;54.34
10176;BME280;18221;38.704;0.152;2023-02-15T05:22:26;100017.38;;;13.84;54.60
10176;BME280;18221;38.704;0.152;2023-02-15T05:24:56;100025.28;;;14.04;53.99
10176;BME280;18221;38.704;0.152;2023-02-15T05:27:43;100018.28;;;14.13;53.90
10176;BME280;18221;38.704;0.152;2023-02-15T05:30:28;100024.00;;;13.99;54.12
10176;BME280;18221;38.704;0.152;2023-02-15T05:32:56;100021.63;;;14.05;54.19
10176;BME280;18221;38.704;0.152;2023-02-15T05:35:25;100029.81;;;14.23;53.38
10176;BME280;18221;38.704;0.152;2023-02-15T05:37:53;100025.31;;;14.23;53.14
10176;BME280;18221;38.704;0.152;2023-02-15T05:40:22;100026.00;;;14.06;53.27
10176;BME280;18221;38.704;0.152;2023-02-15T05:42:52;100036.22;;;13.92;54.28
10176;BME280;18221;38.704;0.152;2023-02-15T05:45:21;100030.03;;;14.01;53.97
10176;BME280;18221;38.704;0.152;2023-02-15T05:47:49;100029.25;;;14.10;53.66
10176;BME280;18221;38.704;0.152;2023-02-15T05:50:18;100030.34;;;14.07;53.75
10176;BME280;18221;38.704;0.152;2023-02-15T05:52:47;100031.31;;;13.97;53.99
10176;BME280;18221;38.704;0.152;2023-02-15T05:55:15;100042.97;;;13.96;54.37
10176;BME280;18221;38.704;0.152;2023-02-15T05:57:44;100036.81;;;14.05;54.13
10176;BME280;18221;38.704;0.152;2023-02-15T06:00:15;100040.81;;;13.90;54.39
10176;BME280;18221;38.704;0.152;2023-02-15T06:02:44;100039.97;;;13.49;55.54
10176;BME280;18221;38.704;0.152;2023-02-15T06:05:13;100032.69;;;13.82;54.96
10176;BME280;18221;38.704;0.152;2023-02-15T06:07:43;100044.19;;;13.82;54.80
10176;BME280;18221;38.704;0.152;2023-02-15T06:10:12;100028.31;;;13.90;54.62
10176;BME280;18221;38.704;0.152;2023-02-15T06:12:40;100035.09;;;13.94;54.33
10176;BME280;18221;38.704;0.152;2023-02-15T06:15:09;100035.91;;;13.95;53.97
10176;BME280;18221;38.704;0.152;2023-02-15T06:17:41;100033.66;;;13.90;53.67
10176;BME280;18221;38.704;0.152;2023-02-15T06:20:11;100037.88;;;13.83;54.14
10176;BME280;18221;38.704;0.152;2023-02-15T06:22:40;100036.66;;;13.97;53.77
10176;BME280;18221;38.704;0.152;2023-02-15T06:25:09;100030.59;;;13.95;53.48
10176;BME280;18221;38.704;0.152;2023-02-15T06:27:38;100041.13;;;13.87;53.50
10176;BME280;18221;38.704;0.152;2023-02-15T06:30:13;100040.50;;;13.74;53.81
10176;BME280;18221;38.704;0.152;2023-02-15T06:32:43;100039.97;;;13.80;54.00
10176;BME280;18221;38.704;0.152;2023-02-15T06:35:12;100036.94;;;13.94;53.56
10176;BME280;18221;38.704;0.152;2023-02-15T06:37:46;100043.56;;;13.69;54.23
10176;BME280;18221;38.704;0.152;2023-02-15T06:40:15;100048.91;;;13.69;54.12
10176;BME280;18221;38.704;0.152;2023-02-15T06:42:44;100044.38;;;13.60;54.52
10176;BME280;18221;38.704;0.152;2023-02-15T06:45:13;100046.91;;;13.61;54.93
10176;BME280;18221;38.704;0.152;2023-02-15T06:47:43;100051.31;;;13.72;54.64
10176;BME280;18221;38.704;0.152;2023-02-15T06:50:12;100041.13;;;13.87;54.49
10176;BME280;18221;38.704;0.152;2023-02-15T06:52:40;100052.59;;;13.78;54.41
10176;BME280;18221;38.704;0.152;2023-02-15T06:55:11;100055.59;;;13.84;54.14
10176;BME280;18221;38.704;0.152;2023-02-15T06:57:40;100059.00;;;13.96;54.03
10176;BME280;18221;38.704;0.152;2023-02-15T07:00:10;100050.94;;;13.86;53.97
10176;BME280;18221;38.704;0.152;2023-02-15T07:02:39;100064.53;;;13.74;54.15
10176;BME280;18221;38.704;0.152;2023-02-15T07:05:09;100059.63;;;13.79;54.06
10176;BME280;18221;38.704;0.152;2023-02-15T07:07:38;100062.94;;;13.92;53.94
10176;BME280;18221;38.704;0.152;2023-02-15T07:10:07;100059.81;;;13.87;53.61
10176;BME280;18221;38.704;0.152;2023-02-15T07:12:36;100061.47;;;13.78;53.95
10176;BME280;18221;38.704;0.152;2023-02-15T07:15:13;100066.69;;;13.59;54.22
10176;BME280;18221;38.704;0.152;2023-02-15T07:17:42;100067.06;;;13.75;54.17
10176;BME280;18221;38.704;0.152;2023-02-15T07:20:19;100066.47;;;13.72;54.01
10176;BME280;18221;38.704;0.152;2023-02-15T07:22:49;100058.91;;;13.77;53.71
10176;BME280;18221;38.704;0.152;2023-02-15T07:25:18;100063.13;;;13.79;53.69
10176;BME280;18221;38.704;0.152;2023-02-15T07:27:46;100071.31;;;13.87;53.30
10176;BME280;18221;38.704;0.152;2023-02-15T07:30:17;100068.25;;;13.92;53.40
10176;BME280;18221;38.704;0.152;2023-02-15T07:32:46;100067.69;;;13.88;53.00
10176;BME280;18221;38.704;0.152;2023-02-15T07:35:34;100076.38;;;13.90;53.03
10176;BME280;18221;38.704;0.152;2023-02-15T07:38:02;100069.56;;;13.97;52.77
10176;BME280;18221;38.704;0.152;2023-02-15T07:40:31;100076.88;;;14.05;52.74
10176;BME280;18221;38.704;0.152;2023-02-15T07:42:59;100068.25;;;13.92;53.01
10176;BME280;18221;38.704;0.152;2023-02-15T07:45:28;100072.53;;;14.13;52.69
10176;BME280;18221;38.704;0.152;2023-02-15T07:47:56;100077.75;;;14.15;52.65
10176;BME280;18221;38.704;0.152;2023-02-15T07:50:25;100073.25;;;14.15;52.46
10176;BME280;18221;38.704;0.152;2023-02-15T07:52:56;100071.72;;;14.13;52.45
10176;BME280;18221;38.704;0.152;2023-02-15T07:55:25;100073.38;;;14.23;52.07
10176;BME280;18221;38.704;0.152;2023-02-15T07:57:54;100085.97;;;14.33;51.97
10176;BME280;18221;38.704;0.152;2023-02-15T08:00:23;100081.88;;;14.29;52.48
10176;BME280;18221;38.704;0.152;2023-02-15T08:02:55;100089.06;;;14.38;52.12
10176;BME280;18221;38.704;0.152;2023-02-15T08:05:46;100088.41;;;14.64;51.55
10176;BME280;18221;38.704;0.152;2023-02-15T08:08:16;100087.03;;;14.70;51.38
10176;BME280;18221;38.704;0.152;2023-02-15T08:11:03;100082.63;;;14.78;51.44
10176;BME280;18221;38.704;0.152;2023-02-15T08:13:51;100090.53;;;14.80;51.60
10176;BME280;18221;38.704;0.152;2023-02-15T08:16:30;100084.22;;;14.91;51.47
10176;BME280;18221;38.704;0.152;2023-02-15T08:19:05;100093.63;;;14.95;51.16
10176;BME280;18221;38.704;0.152;2023-02-15T08:21:36;100099.97;;;15.03;50.93
10176;BME280;18221;38.704;0.152;2023-02-15T08:24:09;100094.34;;;15.06;50.80
10176;BME280;18221;38.704;0.152;2023-02-15T08:26:38;100099.41;;;15.00;50.85
10176;BME280;18221;38.704;0.152;2023-02-15T08:29:10;100102.78;;;15.11;50.64
10176;BME280;18221;38.704;0.152;2023-02-15T08:31:39;100110.09;;;15.19;50.81
10176;BME280;18221;38.704;0.152;2023-02-15T08:34:09;100119.66;;;15.31;50.39
10176;BME280;18221;38.704;0.152;2023-02-15T08:36:38;100114.28;;;15.31;50.35
10176;BME280;18221;38.704;0.152;2023-02-15T08:39:09;100117.38;;;15.36;50.17
10176;BME280;18221;38.704;0.152;2023-02-15T08:41:41;100115.84;;;15.43;50.15
10176;BME280;18221;38.704;0.152;2023-02-15T08:44:09;100119.09;;;15.56;49.76
10176;BME280;18221;38.704;0.152;2023-02-15T08:46:40;100128.06;;;15.65;49.80
10176;BME280;18221;38.704;0.152;2023-02-15T08:49:15;100128.09;;;15.55;49.56
10176;BME280;18221;38.704;0.152;2023-02-15T08:51:44;100124.41;;;15.66;49.47
10176;BME280;18221;38.704;0.152;2023-02-15T08:54:17;100133.97;;;15.68;49.34
10176;BME280;18221;38.704;0.152;2023-02-15T08:56:47;100135.09;;;15.75;49.37
10176;BME280;18221;38.704;0.152;2023-02-15T08:59:18;100134.56;;;15.72;49.61
10176;BME280;18221;38.704;0.152;2023-02-15T09:01:49;100132.88;;;15.61;49.62
10176;BME280;18221;38.704;0.152;2023-02-15T09:04:18;100138.78;;;15.74;49.54
10176;BME280;18221;38.704;0.152;2023-02-15T09:06:48;100138.78;;;15.74;49.66
10176;BME280;18221;38.704;0.152;2023-02-15T09:09:19;100133.41;;;15.74;49.10
10176;BME280;18221;38.704;0.152;2023-02-15T09:11:50;100141.13;;;15.77;49.17
10176;BME280;18221;38.704;0.152;2023-02-15T09:14:21;100135.97;;;15.66;49.43
10176;BME280;18221;38.704;0.152;2023-02-15T09:16:52;100139.81;;;15.91;49.14
10176;BME280;18221;38.704;0.152;2023-02-15T09:19:22;100144.34;;;15.90;48.90
10176;BME280;18221;38.704;0.152;2023-02-15T09:21:54;100144.44;;;15.98;48.94
10176;BME280;18221;38.704;0.152;2023-02-15T09:24:24;100137.31;;;15.89;48.69
10176;BME280;18221;38.704;0.152;2023-02-15T09:26:52;100141.53;;;15.92;48.90
10176;BME280;18221;38.704;0.152;2023-02-15T09:29:21;100143.75;;;15.96;48.70
10176;BME280;18221;38.704;0.152;2023-02-15T09:31:50;100151.47;;;16.09;48.83
10176;BME280;18221;38.704;0.152;2023-02-15T09:34:21;100146.31;;;15.88;48.96
10176;BME280;18221;38.704;0.152;2023-02-15T09:36:50;100152.03;;;15.66;49.23
10176;BME280;18221;38.704;0.152;2023-02-15T09:39:24;100159.44;;;15.91;48.86
10176;BME280;18221;38.704;0.152;2023-02-15T09:42:29;100148.13;;;15.51;49.23
10176;BME280;18221;38.704;0.152;2023-02-15T09:45:23;100150.34;;;15.65;49.26
10176;BME280;18221;38.704;0.152;2023-02-15T09:48:38;100148.25;;;15.96;48.92
10176;BME280;18221;38.704;0.152;2023-02-15T09:51:46;100151.84;;;16.24;48.08
10176;BME280;18221;38.704;0.152;2023-02-15T09:54:41;100150.53;;;16.28;47.66
10176;BME280;18221;38.704;0.152;2023-02-15T09:57:26;100156.28;;;16.33;47.37
10176;BME280;18221;38.704;0.152;2023-02-15T10:00:08;100156.09;;;16.44;46.99
10176;BME280;18221;38.704;0.152;2023-02-15T10:02:59;100161.91;;;16.39;46.63
10176;BME280;18221;38.704;0.152;2023-02-15T10:05:46;100160.50;;;16.45;46.93
10176;BME280;18221;38.704;0.152;2023-02-15T10:08:53;100164.47;;;16.68;46.37
10176;BME280;18221;38.704;0.152;2023-02-15T10:11:36;100165.00;;;16.72;46.36
10176;BME280;18221;38.704;0.152;2023-02-15T10:14:46;100167.78;;;16.97;45.93
10176;BME280;18221;38.704;0.152;2023-02-15T10:17:40;100165.25;;;16.96;45.61
10176;BME280;18221;38.704;0.152;2023-02-15T10:20:25;100173.16;;;16.97;45.88
10176;BME280;18221;38.704;0.152;2023-02-15T10:23:23;100172.38;;;16.87;46.22
10176;BME280;18221;38.704;0.152;2023-02-15T10:26:03;100166.25;;;16.77;46.33
10176;BME280;18221;38.704;0.152;2023-02-15T10:28:44;100164.72;;;16.92;46.22
10176;BME280;18221;38.704;0.152;2023-02-15T10:31:24;100174.19;;;16.69;46.42
10176;BME280;18221;38.704;0.152;2023-02-15T10:34:16;100177.97;;;16.76;46.32
10176;BME280;18221;38.704;0.152;2023-02-15T10:37:17;100168.72;;;16.88;46.50
10176;BME280;18221;38.704;0.152;2023-02-15T10:40:04;100165.63;;;16.83;46.78
10176;BME280;18221;38.704;0.152;2023-02-15T10:42:54;100164.41;;;16.78;46.84
10176;BME280;18221;38.704;0.152;2023-02-15T10:45:36;100160.81;;;16.87;46.95
10176;BME280;18221;38.704;0.152;2023-02-15T10:48:41;100166.63;;;17.00;46.55
10176;BME280;18221;38.704;0.152;2023-02-15T10:51:28;100163.25;;;17.15;46.30
10176;BME280;18221;38.704;0.152;2023-02-15T10:54:20;100161.47;;;17.42;45.79
10176;BME280;18221;38.704;0.152;2023-02-15T10:56:59;100162.41;;;17.50;44.75
10176;BME280;18221;38.704;0.152;2023-02-15T10:59:52;100164.19;;;17.85;44.79
10176;BME280;18221;38.704;0.152;2023-02-15T11:02:42;100162.06;;;17.97;43.53
10176;BME280;18221;38.704;0.152;2023-02-15T11:05:26;100152.34;;;17.70;42.49
10176;BME280;18221;38.704;0.152;2023-02-15T11:08:07;100152.41;;;17.78;42.98
10176;BME280;18221;38.704;0.152;2023-02-15T11:10:41;100156.94;;;17.77;43.71
10176;BME280;18221;38.704;0.152;2023-02-15T11:13:15;100153.28;;;17.61;43.32
10176;BME280;18221;38.704;0.152;2023-02-15T11:15:50;100154.13;;;17.87;43.25
10176;BME280;18221;38.704;0.152;2023-02-15T11:18:31;100151.88;;;17.74;44.03
10176;BME280;18221;38.704;0.152;2023-02-15T11:21:07;100151.28;;;17.88;43.64
10176;BME280;18221;38.704;0.152;2023-02-15T11:23:43;100147.66;;;17.72;43.76
10176;BME280;18221;38.704;0.152;2023-02-15T11:26:19;100144.84;;;17.81;43.58
10176;BME280;18221;38.704;0.152;2023-02-15T11:28:58;100145.09;;;17.70;43.39
10176;BME280;18221;38.704;0.152;2023-02-15T11:31:41;100145.22;;;17.61;44.07
10176;BME280;18221;38.704;0.152;2023-02-15T11:34:21;100152.28;;;17.87;43.38
10176;BME280;18221;38.704;0.152;2023-02-15T11:36:59;100133.63;;;17.60;43.15
10176;BME280;18221;38.704;0.152;2023-02-15T11:39:31;100137.53;;;17.05;44.13
10176;BME280;18221;38.704;0.152;2023-02-15T11:42:06;100137.34;;;17.24;44.14
10176;BME280;18221;38.704;0.152;2023-02-15T11:44:54;100129.19;;;17.51;43.81
10176;BME280;18221;38.704;0.152;2023-02-15T11:47:24;100129.19;;;17.51;44.06
10176;BME280;18221;38.704;0.152;2023-02-15T11:49:56;100126.19;;;17.37;44.36
10176;BME280;18221;38.704;0.152;2023-02-15T11:52:25;100126.78;;;17.66;43.95
10176;BME280;18221;38.704;0.152;2023-02-15T11:54:54;100119.25;;;17.95;42.81
10176;BME280;18221;38.704;0.152;2023-02-15T11:57:31;100127.00;;;17.72;43.23
10176;BME280;18221;38.704;0.152;2023-02-15T12:00:10;100117.25;;;17.71;43.17
10176;BME280;18221;38.704;0.152;2023-02-15T12:02:50;100114.50;;;17.89;43.28
10176;BME280;18221;38.704;0.152;2023-02-15T12:05:25;100113.69;;;18.22;42.87
10176;BME280;18221;38.704;0.152;2023-02-15T12:08:01;100116.31;;;18.14;42.96
10176;BME280;18221;38.704;0.152;2023-02-15T12:10:39;100113.47;;;17.82;43.65
10176;BME280;18221;38.704;0.152;2023-02-15T12:13:12;100113.78;;;17.79;44.00
10176;BME280;18221;38.704;0.152;2023-02-15T12:15:48;100103.81;;;17.71;44.29
10176;BME280;18221;38.704;0.152;2023-02-15T12:18:37;100106.44;;;17.89;44.39
10176;BME280;18221;38.704;0.152;2023-02-15T12:21:10;100104.56;;;17.81;44.38
10176;BME280;18221;38.704;0.152;2023-02-15T12:23:47;100095.88;;;17.87;44.61
10176;BME280;18221;38.704;0.152;2023-02-15T12:26:25;100085.16;;;17.96;44.33
10176;BME280;18221;38.704;0.152;2023-02-15T12:28:55;100081.44;;;17.97;44.65
10176;BME280;18221;38.704;0.152;2023-02-15T12:31:40;100083.66;;;17.67;45.25
10176;BME280;18221;38.704;0.152;2023-02-15T12:34:16;100082.09;;;17.39;45.93
10176;BME280;18221;38.704;0.152;2023-02-15T12:36:51;100084.81;;;17.21;46.69
10176;BME280;18221;38.704;0.152;2023-02-15T12:39:22;100084.59;;;17.15;46.10
10176;BME280;18221;38.704;0.152;2023-02-15T12:42:03;100077.78;;;17.20;46.58
10176;BME280;18221;38.704;0.152;2023-02-15T12:44:33;100077.38;;;17.15;46.45
10176;BME280;18221;38.704;0.152;2023-02-15T12:47:17;100079.00;;;17.08;46.95
10176;BME280;18221;38.704;0.152;2023-02-15T12:50:10;100072.56;;;17.01;47.34
10176;BME280;18221;38.704;0.152;2023-02-15T12:52:45;100066.81;;;16.61;47.59
10176;BME280;18221;38.704;0.152;2023-02-15T12:55:24;100060.63;;;16.78;47.54
10176;BME280;18221;38.704;0.152;2023-02-15T12:58:17;100060.69;;;16.68;48.00
10176;BME280;18221;38.704;0.152;2023-02-15T13:00:46;100055.78;;;16.64;48.21
10176;BME280;18221;38.704;0.152;2023-02-15T13:03:21;100054.13;;;16.81;47.96
10176;BME280;18221;38.704;0.152;2023-02-15T13:05:53;100058.84;;;16.69;47.93
10176;BME280;18221;38.704;0.152;2023-02-15T13:08:30;100062.25;;;16.71;47.60
10176;BME280;18221;38.704;0.152;2023-02-15T13:11:03;100052.41;;;16.97;46.89
10176;BME280;18221;38.704;0.152;2023-02-15T13:13:35;100055.25;;;16.96;46.93
10176;BME280;18221;38.704;0.152;2023-02-15T13:16:09;100052.22;;;16.73;47.36
10176;BME280;18221;38.704;0.152;2023-02-15T13:18:43;100044.31;;;16.89;47.30
10176;BME280;18221;38.704;0.152;2023-02-15T13:21:16;100037.00;;;16.82;47.36
10176;BME280;18221;38.704;0.152;2023-02-15T13:23:48;100039.28;;;16.41;48.10
10176;BME280;18221;38.704;0.152;2023-02-15T13:26:22;100031.34;;;16.67;47.43
10176;BME280;18221;38.704;0.152;2023-02-15T13:28:57;100030.81;;;16.63;47.49
10176;BME280;18221;38.704;0.152;2023-02-15T13:31:29;100031.31;;;16.32;47.74
10176;BME280;18221;38.704;0.152;2023-02-15T13:34:09;100031.47;;;16.30;48.03
10176;BME280;18221;38.704;0.152;2023-02-15T13:36:51;100030.00;;;16.36;47.69
10176;BME280;18221;38.704;0.152;2023-02-15T13:39:31;100036.16;;;16.46;47.72
10176;BME280;18221;38.704;0.152;2023-02-15T13:42:18;100028.09;;;16.46;47.50
10176;BME280;18221;38.704;0.152;2023-02-15T13:45:10;100032.13;;;16.59;47.35